• Join FlightAware (Why Join?)
  • Login
  • US Flag 
07:12AM EST


 

Airport Tracker/Info


-or-


 

Live Flight TrackerFlight Track Log ✈ N319EE ✈ 09-Jun-2014 ✈ KAUG - KROC

Flight Track Log - Related Links

Times and Time Zones

All times are in EDT time to prevent confusion due to time zone crossing. See the N319EE flight status page for this flight to view local times or setup timezone preferences in your user account.

Time Position Orientation Groundspeed Altitude Reporting Facility
EDT Latitude Longitude Course Direction KTS MPH feet Rate Location/Type
03:02PM 44.3475 -69.8767 259° West 171 197 3,100  Level Boston Center
03:03PM 44.3381 -69.9444 259° West 166 191 5,100 2,049 Climbing Boston Center
03:04PM 44.3261 -70.0108 256° West 175 201 7,300 2,098 Climbing Boston Center
03:05PM 44.3175 -70.0803 260° West 179 206 9,400 2,049 Climbing Boston Center
03:06PM 44.3019 -70.1522 253° West 180 207 11,500 1,805 Climbing Boston Center
03:07PM 44.2922 -70.2236 259° West 184 212 13,100 1,561 Climbing Boston Center
03:08PM 44.2794 -70.3019 257° West 191 220 14,700 1,415 Climbing Boston Center
03:09PM 44.2683 -70.3750 258° West 192 221 16,000 1,171 Climbing Boston Center
03:10PM 44.2556 -70.4492 256° West 194 223 17,100 1,171 Climbing Boston Center
03:11PM 44.2431 -70.5308 258° West 199 229 18,400 976 Climbing Boston Center
03:12PM 44.2328 -70.5953 257° West 200 230 19,100 484 Climbing Boston Center
03:13PM 44.2181 -70.6781 256° West 212 244 19,400 341 Climbing Boston Center
03:14PM 44.2000 -70.7886 257° West 238 274 19,800 293 Climbing Boston Center
03:15PM 44.1850 -70.8844 258° West 249 287 20,000 98 Climbing Boston Center
03:16PM 44.1689 -70.9806 257° West 252 290 20,000  Level Boston Center
03:17PM 44.1522 -71.0792 257° West 257 296 20,000  Level Boston Center
03:18PM 44.1361 -71.1728 257° West 255 293 20,000  Level Boston Center
03:19PM 44.1214 -71.2681 258° West 253 291 20,000  Level Boston Center
03:20PM 44.1053 -71.3589 256° West 246 283 20,000  Level Boston Center
03:21PM 44.0892 -71.4528 257° West 246 283 20,000  Level Boston Center
03:22PM 44.0694 -71.5617 256° West 248 285 20,000  Level Boston Center
03:23PM 44.0542 -71.6536 257° West 247 284 20,000  Level Boston Center
03:24PM 44.0378 -71.7469 256° West 248 285 20,000  Level Boston Center
03:25PM 44.0208 -71.8386 256° West 248 285 20,000  Level Boston Center
03:26PM 44.0058 -71.9242 256° West 247 284 20,000  Level Boston Center
03:27PM 43.9872 -72.0364 257° West 248 285 20,000  Level Boston Center
03:28PM 43.9692 -72.1292 255° West 249 287 20,000  Level Boston Center
03:30PM 43.9525 -72.2222 256° West 249 287 20,000  Level Boston Center
03:31PM 43.9367 -72.3156 257° West 249 287 20,000  Level Boston Center
03:32PM 43.9200 -72.4081 256° West 249 287 20,000  Level Boston Center
03:33PM 43.9031 -72.5000 256° West 249 287 20,000  Level Boston Center
03:34PM 43.8858 -72.5914 255° West 249 287 20,000  Level Boston Center
03:35PM 43.8658 -72.7011 256° West 247 284 20,000  Level Boston Center
03:36PM 43.8497 -72.7931 256° West 247 284 20,000  Level Boston Center
03:37PM 43.8322 -72.8850 255° West 247 284 20,000  Level Boston Center
03:38PM 43.8150 -72.9764 255° West 247 284 20,000  Level Boston Center
03:39PM 43.7733 -73.0644 237° Southwest 250 288 20,000  Level Boston Center
03:40PM 43.7272 -73.1372 229° Southwest 252 290 20,000  Level Boston Center
03:41PM 43.7111 -73.2294 256° West 249 287 20,000  Level Boston Center
03:42PM 43.7008 -73.3244 262° West 249 287 20,000  Level Boston Center
03:43PM 43.6894 -73.4192 261° West 249 287 20,000  Level Boston Center
03:44PM 43.6792 -73.5133 261° West 249 287 20,000  Level Boston Center
03:45PM 43.6681 -73.6081 261° West 249 287 20,000  Level Boston Center
03:46PM 43.6547 -73.7214 261° West 250 288 20,000  Level Boston Center
03:47PM 43.6431 -73.8178 261° West 250 288 20,000  Level Boston Center
03:48PM 43.6319 -73.9114 261° West 250 288 20,000  Level Boston Center
03:49PM 43.6203 -74.0069 260° West 250 288 20,000  Level Boston Center
03:50PM 43.6092 -74.1033 261° West 250 288 20,000  Level Boston Center
03:51PM 43.5989 -74.1961 261° West 250 288 20,000  Level Boston Center
03:52PM 43.5864 -74.2897 260° West 250 288 20,000  Level Boston Center
03:53PM 43.5750 -74.3839 261° West 250 288 20,000  Level Boston Center
03:54PM 43.5608 -74.4961 260° West 250 288 20,000  Level Boston Center
03:55PM 43.5492 -74.5897 260° West 250 288 20,000  Level Boston Center
03:56PM 43.5378 -74.6833 261° West 250 288 20,000  Level Boston Center
03:57PM 43.5258 -74.7769 260° West 250 288 20,000  Level Boston Center
03:58PM 43.5139 -74.8694 260° West 249 287 20,000  Level Boston Center
03:59PM 43.5022 -74.9636 260° West 249 287 20,000  Level Boston Center
04:00PM 43.4900 -75.0578 260° West 250 288 20,000  Level Boston Center
04:01PM 43.4758 -75.1692 260° West 250 288 20,000  Level Boston Center
04:02PM 43.4639 -75.2611 260° West 249 287 20,000  Level Boston Center
04:03PM 43.4517 -75.3531 260° West 250 288 20,000  Level Boston Center
04:04PM 43.4397 -75.4453 260° West 249 287 20,000  Level Boston Center
04:05PM 43.4272 -75.5375 259° West 249 287 20,000  Level Boston Center
04:06PM 43.4122 -75.6494 260° West 249 287 20,000  Level Boston Center
04:08PM 43.3994 -75.7428 259° West 249 287 20,000 -341 Level Boston Center
04:09PM 43.3861 -75.8375 259° West 251 289 19,300 -829 Descending Boston Center
04:10PM 43.3717 -75.9411 259° West 271 312 18,300 -976 Descending Boston Center
04:11PM 43.3569 -76.0481 259° West 282 325 17,300 -976 Descending Boston Center
04:12PM 43.3428 -76.1533 260° West 282 325 16,300 -976 Descending Boston Center
04:13PM 43.3272 -76.2589 259° West 282 325 15,300 -976 Descending Boston Center
04:14PM 43.3122 -76.3656 259° West 283 326 14,300 -1,171 Descending Boston Center
04:15PM 43.2961 -76.4942 260° West 284 327 12,900 -1,122 Descending Boston Center
04:16PM 43.2789 -76.5992 257° West 284 327 12,000 -836 Descending Boston Center
04:17PM 43.2639 -76.7022 259° West 284 327 11,200 -488 Descending Boston Center
04:18PM 43.2503 -76.8047 260° West 276 318 11,000 -107 Descending Boston Center
04:19PM 43.2358 -76.8950 258° West 257 296 11,000 -432 Level Cleveland Center
04:20PM 43.2208 -76.9897 258° West 268 308 10,200 -1,279 Descending Cleveland Center
04:21PM 43.1928 -77.0869 248° West 279 321 8,400 -1,606 Descending Cleveland Center
04:22PM 43.1639 -77.1903 249° West 276 318 6,800 -1,406 Descending Cleveland Center
04:23PM 43.1361 -77.2889 249° West 276 318 5,400 -1,403 Descending Cleveland Center
04:24PM 43.1064 -77.3883 248° West 280 322 3,900 -1,500 Descending Cleveland Center
04:24PM 43.0983 -77.4158 248° West 278 320 3,600 -968 Descending Cleveland Center
04:25PM 43.0800 -77.4828 249° West 274 315 2,900 -684 Descending Cleveland Center
04:26PM 43.0636 -77.5950 259° West 258 297 2,300 -508 Descending Cleveland Center
04:27PM 43.0617 -77.6756 268° West 190 219 1,900 -621 Descending Cleveland Center
04:28PM 43.0872 -77.7053 320° Northwest 138 159 1,100 -641 Descending Cleveland Center
04:29PM 43.1178 -77.6792 32° Northeast 145 167 500 -507 Descending Cleveland Center